sensor_id;sensor_type;location;lat;lon;timestamp;temperature;humidity
31369;DHT22;18004;48.416;10.066;2023-04-24T00:00:54;10.70;99.90
31369;DHT22;18004;48.416;10.066;2023-04-24T00:03:23;10.70;99.90
31369;DHT22;18004;48.416;10.066;2023-04-24T00:05:49;10.70;99.90
31369;DHT22;18004;48.416;10.066;2023-04-24T00:08:15;10.70;99.90
31369;DHT22;18004;48.416;10.066;2023-04-24T00:10:41;10.70;99.90
31369;DHT22;18004;48.416;10.066;2023-04-24T00:13:07;10.60;99.90
31369;DHT22;18004;48.416;10.066;2023-04-24T00:15:33;10.60;99.90
31369;DHT22;18004;48.416;10.066;2023-04-24T00:17:58;10.60;99.90
31369;DHT22;18004;48.416;10.066;2023-04-24T00:20:24;10.60;99.90
31369;DHT22;18004;48.416;10.066;2023-04-24T00:22:50;10.60;99.90
31369;DHT22;18004;48.416;10.066;2023-04-24T00:25:16;10.60;99.90
31369;DHT22;18004;48.416;10.066;2023-04-24T00:27:41;10.60;99.90
31369;DHT22;18004;48.416;10.066;2023-04-24T00:30:07;10.60;99.90
31369;DHT22;18004;48.416;10.066;2023-04-24T00:32:33;10.60;99.90
31369;DHT22;18004;48.416;10.066;2023-04-24T00:34:59;10.60;99.90
31369;DHT22;18004;48.416;10.066;2023-04-24T00:37:25;10.60;99.90
31369;DHT22;18004;48.416;10.066;2023-04-24T00:39:50;10.60;99.90
31369;DHT22;18004;48.416;10.066;2023-04-24T00:42:16;10.60;99.90
31369;DHT22;18004;48.416;10.066;2023-04-24T00:44:42;10.60;99.90
31369;DHT22;18004;48.416;10.066;2023-04-24T00:47:08;10.60;99.90
31369;DHT22;18004;48.416;10.066;2023-04-24T00:49:34;10.60;99.90
31369;DHT22;18004;48.416;10.066;2023-04-24T00:52:00;10.50;99.90
31369;DHT22;18004;48.416;10.066;2023-04-24T00:54:26;10.50;99.90
31369;DHT22;18004;48.416;10.066;2023-04-24T00:56:52;10.50;99.90
31369;DHT22;18004;48.416;10.066;2023-04-24T00:59:18;10.50;99.90
31369;DHT22;18004;48.416;10.066;2023-04-24T01:01:44;10.50;99.90
31369;DHT22;18004;48.416;10.066;2023-04-24T01:04:11;10.50;99.90
31369;DHT22;18004;48.416;10.066;2023-04-24T01:06:39;10.50;99.90
31369;DHT22;18004;48.416;10.066;2023-04-24T01:09:05;10.60;99.90
31369;DHT22;18004;48.416;10.066;2023-04-24T01:11:31;10.60;99.90
31369;DHT22;18004;48.416;10.066;2023-04-24T01:13:57;10.60;99.90
31369;DHT22;18004;48.416;10.066;2023-04-24T01:16:24;10.60;99.90
31369;DHT22;18004;48.416;10.066;2023-04-24T01:18:50;10.60;99.90
31369;DHT22;18004;48.416;10.066;2023-04-24T01:21:17;10.60;99.90
31369;DHT22;18004;48.416;10.066;2023-04-24T01:23:44;10.60;99.90
31369;DHT22;18004;48.416;10.066;2023-04-24T01:26:10;10.60;99.90
31369;DHT22;18004;48.416;10.066;2023-04-24T01:28:37;10.60;99.90
31369;DHT22;18004;48.416;10.066;2023-04-24T01:31:03;10.60;99.90
31369;DHT22;18004;48.416;10.066;2023-04-24T01:33:28;10.50;99.90
31369;DHT22;18004;48.416;10.066;2023-04-24T01:35:54;10.60;99.90
31369;DHT22;18004;48.416;10.066;2023-04-24T01:38:20;10.60;99.90
31369;DHT22;18004;48.416;10.066;2023-04-24T01:40:46;10.60;99.90
31369;DHT22;18004;48.416;10.066;2023-04-24T01:43:13;10.60;99.90
31369;DHT22;18004;48.416;10.066;2023-04-24T01:45:39;10.60;99.90
31369;DHT22;18004;48.416;10.066;2023-04-24T01:48:04;10.60;99.90
31369;DHT22;18004;48.416;10.066;2023-04-24T01:50:31;10.50;99.90
31369;DHT22;18004;48.416;10.066;2023-04-24T01:52:57;10.50;99.90
31369;DHT22;18004;48.416;10.066;2023-04-24T01:55:22;10.40;99.90
31369;DHT22;18004;48.416;10.066;2023-04-24T01:57:49;10.40;99.90
31369;DHT22;18004;48.416;10.066;2023-04-24T02:00:15;10.40;99.90
31369;DHT22;18004;48.416;10.066;2023-04-24T02:02:41;10.40;99.90
31369;DHT22;18004;48.416;10.066;2023-04-24T02:05:07;10.40;99.90
31369;DHT22;18004;48.416;10.066;2023-04-24T02:07:34;10.40;99.90
31369;DHT22;18004;48.416;10.066;2023-04-24T02:09:59;10.40;99.90
31369;DHT22;18004;48.416;10.066;2023-04-24T02:12:25;10.40;99.90
31369;DHT22;18004;48.416;10.066;2023-04-24T02:14:51;10.40;99.90
31369;DHT22;18004;48.416;10.066;2023-04-24T02:17:17;10.30;99.90
31369;DHT22;18004;48.416;10.066;2023-04-24T02:19:45;10.30;99.90
31369;DHT22;18004;48.416;10.066;2023-04-24T02:22:11;10.30;99.90
31369;DHT22;18004;48.416;10.066;2023-04-24T02:24:37;10.30;99.90
31369;DHT22;18004;48.416;10.066;2023-04-24T02:27:03;10.30;99.90
31369;DHT22;18004;48.416;10.066;2023-04-24T02:29:29;10.30;99.90
31369;DHT22;18004;48.416;10.066;2023-04-24T02:31:55;10.20;99.90
31369;DHT22;18004;48.416;10.066;2023-04-24T02:34:20;10.30;99.90
31369;DHT22;18004;48.416;10.066;2023-04-24T02:36:46;10.20;99.90
31369;DHT22;18004;48.416;10.066;2023-04-24T02:39:12;10.20;99.90
31369;DHT22;18004;48.416;10.066;2023-04-24T02:41:38;10.20;99.90
31369;DHT22;18004;48.416;10.066;2023-04-24T02:44:04;10.20;99.90
31369;DHT22;18004;48.416;10.066;2023-04-24T02:46:30;10.20;99.90
31369;DHT22;18004;48.416;10.066;2023-04-24T02:48:56;10.20;99.90
31369;DHT22;18004;48.416;10.066;2023-04-24T02:51:21;10.10;99.90
31369;DHT22;18004;48.416;10.066;2023-04-24T02:53:47;10.10;99.90
31369;DHT22;18004;48.416;10.066;2023-04-24T02:56:13;10.10;99.90
31369;DHT22;18004;48.416;10.066;2023-04-24T02:58:39;10.10;99.90
31369;DHT22;18004;48.416;10.066;2023-04-24T03:01:05;10.00;99.90
31369;DHT22;18004;48.416;10.066;2023-04-24T03:03:30;10.00;99.90
31369;DHT22;18004;48.416;10.066;2023-04-24T03:05:56;10.00;99.90
31369;DHT22;18004;48.416;10.066;2023-04-24T03:08:23;10.00;99.90
31369;DHT22;18004;48.416;10.066;2023-04-24T03:10:49;10.00;99.90
31369;DHT22;18004;48.416;10.066;2023-04-24T03:13:16;10.00;99.90
31369;DHT22;18004;48.416;10.066;2023-04-24T03:15:41;9.90;99.90
31369;DHT22;18004;48.416;10.066;2023-04-24T03:18:07;9.90;99.90
31369;DHT22;18004;48.416;10.066;2023-04-24T03:20:33;9.90;99.90
31369;DHT22;18004;48.416;10.066;2023-04-24T03:22:59;9.90;99.90
31369;DHT22;18004;48.416;10.066;2023-04-24T03:25:25;9.90;99.90
31369;DHT22;18004;48.416;10.066;2023-04-24T03:27:51;9.90;99.90
31369;DHT22;18004;48.416;10.066;2023-04-24T03:30:17;9.90;99.90
31369;DHT22;18004;48.416;10.066;2023-04-24T03:32:43;9.90;99.90
31369;DHT22;18004;48.416;10.066;2023-04-24T03:35:08;9.90;99.90
31369;DHT22;18004;48.416;10.066;2023-04-24T03:37:34;9.90;99.90
31369;DHT22;18004;48.416;10.066;2023-04-24T03:40:01;9.90;99.90
31369;DHT22;18004;48.416;10.066;2023-04-24T03:42:27;9.90;99.90
31369;DHT22;18004;48.416;10.066;2023-04-24T03:44:52;9.90;99.90
31369;DHT22;18004;48.416;10.066;2023-04-24T03:47:18;9.90;99.90
31369;DHT22;18004;48.416;10.066;2023-04-24T03:49:44;9.90;99.90
31369;DHT22;18004;48.416;10.066;2023-04-24T03:52:10;9.90;99.90
31369;DHT22;18004;48.416;10.066;2023-04-24T03:54:35;9.90;99.90
31369;DHT22;18004;48.416;10.066;2023-04-24T03:57:01;9.90;99.90
31369;DHT22;18004;48.416;10.066;2023-04-24T03:59:27;9.90;99.90
31369;DHT22;18004;48.416;10.066;2023-04-24T04:01:53;10.00;99.90
31369;DHT22;18004;48.416;10.066;2023-04-24T04:04:18;9.90;99.90
31369;DHT22;18004;48.416;10.066;2023-04-24T04:06:44;10.00;99.90
31369;DHT22;18004;48.416;10.066;2023-04-24T04:09:12;10.00;99.90
31369;DHT22;18004;48.416;10.066;2023-04-24T04:11:37;10.00;99.90
31369;DHT22;18004;48.416;10.066;2023-04-24T04:14:03;10.00;99.90
31369;DHT22;18004;48.416;10.066;2023-04-24T04:16:29;10.00;99.90
31369;DHT22;18004;48.416;10.066;2023-04-24T04:18:55;10.00;99.90
31369;DHT22;18004;48.416;10.066;2023-04-24T04:21:21;10.00;99.90
31369;DHT22;18004;48.416;10.066;2023-04-24T04:23:47;10.00;99.90
31369;DHT22;18004;48.416;10.066;2023-04-24T04:26:13;10.00;99.90
31369;DHT22;18004;48.416;10.066;2023-04-24T04:28:39;10.00;99.90
31369;DHT22;18004;48.416;10.066;2023-04-24T04:31:05;10.00;99.90
31369;DHT22;18004;48.416;10.066;2023-04-24T04:33:33;10.00;99.90
31369;DHT22;18004;48.416;10.066;2023-04-24T04:35:59;10.00;99.90
31369;DHT22;18004;48.416;10.066;2023-04-24T04:38:25;10.00;99.90
31369;DHT22;18004;48.416;10.066;2023-04-24T04:40:55;10.00;99.90
31369;DHT22;18004;48.416;10.066;2023-04-24T04:43:24;10.00;99.90
31369;DHT22;18004;48.416;10.066;2023-04-24T04:45:51;10.00;99.90
31369;DHT22;18004;48.416;10.066;2023-04-24T04:48:18;10.00;99.90
31369;DHT22;18004;48.416;10.066;2023-04-24T04:50:44;10.00;99.90
31369;DHT22;18004;48.416;10.066;2023-04-24T04:53:10;10.00;99.90
31369;DHT22;18004;48.416;10.066;2023-04-24T04:55:37;10.00;99.90
31369;DHT22;18004;48.416;10.066;2023-04-24T04:58:02;10.00;99.90
31369;DHT22;18004;48.416;10.066;2023-04-24T05:00:28;10.00;99.90
31369;DHT22;18004;48.416;10.066;2023-04-24T05:03:00;10.00;99.90
31369;DHT22;18004;48.416;10.066;2023-04-24T05:05:25;10.00;99.90
31369;DHT22;18004;48.416;10.066;2023-04-24T05:07:51;10.00;99.90
31369;DHT22;18004;48.416;10.066;2023-04-24T05:10:17;10.00;99.90
31369;DHT22;18004;48.416;10.066;2023-04-24T05:12:43;10.00;99.90
31369;DHT22;18004;48.416;10.066;2023-04-24T05:15:09;10.10;99.90
31369;DHT22;18004;48.416;10.066;2023-04-24T05:17:35;10.10;99.90
31369;DHT22;18004;48.416;10.066;2023-04-24T05:20:02;10.10;99.90
31369;DHT22;18004;48.416;10.066;2023-04-24T05:22:31;10.10;99.90
31369;DHT22;18004;48.416;10.066;2023-04-24T05:24:57;10.10;99.90
31369;DHT22;18004;48.416;10.066;2023-04-24T05:27:23;10.10;99.90
31369;DHT22;18004;48.416;10.066;2023-04-24T05:29:49;10.10;99.90
31369;DHT22;18004;48.416;10.066;2023-04-24T05:32:15;10.10;99.90
31369;DHT22;18004;48.416;10.066;2023-04-24T05:34:41;10.10;99.90
31369;DHT22;18004;48.416;10.066;2023-04-24T05:37:07;10.10;99.90
31369;DHT22;18004;48.416;10.066;2023-04-24T05:39:35;10.10;99.90
31369;DHT22;18004;48.416;10.066;2023-04-24T05:42:02;10.10;99.90
31369;DHT22;18004;48.416;10.066;2023-04-24T05:44:28;10.10;99.90
31369;DHT22;18004;48.416;10.066;2023-04-24T05:46:54;10.10;99.90
31369;DHT22;18004;48.416;10.066;2023-04-24T05:49:21;10.20;99.90
31369;DHT22;18004;48.416;10.066;2023-04-24T05:51:47;10.20;99.90
31369;DHT22;18004;48.416;10.066;2023-04-24T05:54:12;10.20;99.90
31369;DHT22;18004;48.416;10.066;2023-04-24T05:56:39;10.20;99.90
31369;DHT22;18004;48.416;10.066;2023-04-24T05:59:05;10.20;99.90
31369;DHT22;18004;48.416;10.066;2023-04-24T06:01:31;10.20;99.90
31369;DHT22;18004;48.416;10.066;2023-04-24T06:03:57;10.30;99.90
31369;DHT22;18004;48.416;10.066;2023-04-24T06:06:24;10.20;99.90
31369;DHT22;18004;48.416;10.066;2023-04-24T06:08:49;10.30;99.90
31369;DHT22;18004;48.416;10.066;2023-04-24T06:11:15;10.20;99.90
31369;DHT22;18004;48.416;10.066;2023-04-24T06:13:41;10.20;99.90
31369;DHT22;18004;48.416;10.066;2023-04-24T06:16:07;10.20;99.90
31369;DHT22;18004;48.416;10.066;2023-04-24T06:18:33;10.30;99.90
31369;DHT22;18004;48.416;10.066;2023-04-24T06:20:59;10.20;99.90
31369;DHT22;18004;48.416;10.066;2023-04-24T06:23:25;10.20;99.90
31369;DHT22;18004;48.416;10.066;2023-04-24T06:25:51;10.00;99.90
31369;DHT22;18004;48.416;10.066;2023-04-24T06:28:17;9.90;99.90
31369;DHT22;18004;48.416;10.066;2023-04-24T06:30:42;9.80;99.90
31369;DHT22;18004;48.416;10.066;2023-04-24T06:33:09;9.70;99.90
31369;DHT22;18004;48.416;10.066;2023-04-24T06:35:36;9.60;99.90
31369;DHT22;18004;48.416;10.066;2023-04-24T06:38:01;9.70;99.90
31369;DHT22;18004;48.416;10.066;2023-04-24T06:40:27;9.70;99.90
31369;DHT22;18004;48.416;10.066;2023-04-24T06:42:53;9.70;99.90
31369;DHT22;18004;48.416;10.066;2023-04-24T06:45:19;9.70;99.90
31369;DHT22;18004;48.416;10.066;2023-04-24T06:47:44;9.80;99.90
31369;DHT22;18004;48.416;10.066;2023-04-24T06:50:10;9.80;99.90
31369;DHT22;18004;48.416;10.066;2023-04-24T06:52:37;9.80;99.90
31369;DHT22;18004;48.416;10.066;2023-04-24T06:55:03;9.80;99.90
31369;DHT22;18004;48.416;10.066;2023-04-24T06:57:30;9.80;99.90
31369;DHT22;18004;48.416;10.066;2023-04-24T06:59:56;9.80;99.90
31369;DHT22;18004;48.416;10.066;2023-04-24T07:02:22;9.90;99.90
31369;DHT22;18004;48.416;10.066;2023-04-24T07:04:47;9.90;99.90
31369;DHT22;18004;48.416;10.066;2023-04-24T07:07:14;9.90;99.90
31369;DHT22;18004;48.416;10.066;2023-04-24T07:09:40;9.90;99.90
31369;DHT22;18004;48.416;10.066;2023-04-24T07:12:11;9.90;99.90
31369;DHT22;18004;48.416;10.066;2023-04-24T07:14:37;10.00;99.90
31369;DHT22;18004;48.416;10.066;2023-04-24T07:17:04;10.10;99.90
31369;DHT22;18004;48.416;10.066;2023-04-24T07:19:30;10.10;99.90
31369;DHT22;18004;48.416;10.066;2023-04-24T07:21:56;10.10;99.90
31369;DHT22;18004;48.416;10.066;2023-04-24T07:24:24;10.10;99.90
31369;DHT22;18004;48.416;10.066;2023-04-24T07:26:51;10.00;99.90
31369;DHT22;18004;48.416;10.066;2023-04-24T07:29:17;10.00;99.90
31369;DHT22;18004;48.416;10.066;2023-04-24T07:31:43;10.10;99.90
31369;DHT22;18004;48.416;10.066;2023-04-24T07:34:09;10.20;99.90
31369;DHT22;18004;48.416;10.066;2023-04-24T07:36:35;10.20;99.90
31369;DHT22;18004;48.416;10.066;2023-04-24T07:39:01;10.30;99.90
31369;DHT22;18004;48.416;10.066;2023-04-24T07:41:27;10.50;99.90
31369;DHT22;18004;48.416;10.066;2023-04-24T07:43:53;10.60;99.90
31369;DHT22;18004;48.416;10.066;2023-04-24T07:46:20;10.60;99.90
31369;DHT22;18004;48.416;10.066;2023-04-24T07:48:46;10.60;99.90
31369;DHT22;18004;48.416;10.066;2023-04-24T07:51:14;10.50;99.90
31369;DHT22;18004;48.416;10.066;2023-04-24T07:53:41;10.60;99.90
31369;DHT22;18004;48.416;10.066;2023-04-24T07:56:07;10.80;99.90
31369;DHT22;18004;48.416;10.066;2023-04-24T07:58:33;10.90;99.90
31369;DHT22;18004;48.416;10.066;2023-04-24T08:00:58;11.10;99.90
31369;DHT22;18004;48.416;10.066;2023-04-24T08:03:27;11.20;99.90
31369;DHT22;18004;48.416;10.066;2023-04-24T08:05:52;11.20;99.90
31369;DHT22;18004;48.416;10.066;2023-04-24T08:08:21;11.30;99.90
31369;DHT22;18004;48.416;10.066;2023-04-24T08:10:47;11.50;99.90
31369;DHT22;18004;48.416;10.066;2023-04-24T08:13:13;11.50;99.90
31369;DHT22;18004;48.416;10.066;2023-04-24T08:15:38;11.40;99.90
31369;DHT22;18004;48.416;10.066;2023-04-24T08:18:04;11.40;99.80
31369;DHT22;18004;48.416;10.066;2023-04-24T08:20:30;11.30;99.00
31369;DHT22;18004;48.416;10.066;2023-04-24T08:22:56;11.40;99.90
31369;DHT22;18004;48.416;10.066;2023-04-24T08:25:22;11.50;99.90
31369;DHT22;18004;48.416;10.066;2023-04-24T08:27:50;11.50;99.90
31369;DHT22;18004;48.416;10.066;2023-04-24T08:30:16;11.50;99.90
31369;DHT22;18004;48.416;10.066;2023-04-24T08:32:42;11.40;95.10
31369;DHT22;18004;48.416;10.066;2023-04-24T08:35:08;11.40;94.40
31369;DHT22;18004;48.416;10.066;2023-04-24T08:37:35;11.70;91.40
31369;DHT22;18004;48.416;10.066;2023-04-24T08:40:16;12.10;87.00
31369;DHT22;18004;48.416;10.066;2023-04-24T08:42:44;12.50;80.00
31369;DHT22;18004;48.416;10.066;2023-04-24T08:45:13;13.00;71.40
31369;DHT22;18004;48.416;10.066;2023-04-24T08:47:40;13.30;62.40
31369;DHT22;18004;48.416;10.066;2023-04-24T08:50:07;13.30;60.90
31369;DHT22;18004;48.416;10.066;2023-04-24T08:52:34;13.40;51.50
31369;DHT22;18004;48.416;10.066;2023-04-24T08:55:00;13.00;44.00
31369;DHT22;18004;48.416;10.066;2023-04-24T08:57:27;12.70;53.40
31369;DHT22;18004;48.416;10.066;2023-04-24T08:59:54;12.10;79.70
31369;DHT22;18004;48.416;10.066;2023-04-24T09:02:21;11.10;93.80
31369;DHT22;18004;48.416;10.066;2023-04-24T09:04:47;10.60;95.70
31369;DHT22;18004;48.416;10.066;2023-04-24T09:07:14;10.60;98.10
31369;DHT22;18004;48.416;10.066;2023-04-24T09:09:42;10.70;97.80
31369;DHT22;18004;48.416;10.066;2023-04-24T09:12:08;10.60;98.60
31369;DHT22;18004;48.416;10.066;2023-04-24T09:14:36;10.70;99.00
31369;DHT22;18004;48.416;10.066;2023-04-24T09:17:06;10.90;97.30
31369;DHT22;18004;48.416;10.066;2023-04-24T09:19:32;11.20;93.50
31369;DHT22;18004;48.416;10.066;2023-04-24T09:21:57;11.70;96.20
31369;DHT22;18004;48.416;10.066;2023-04-24T09:24:23;11.90;81.70
31369;DHT22;18004;48.416;10.066;2023-04-24T09:26:56;12.00;87.40
31369;DHT22;18004;48.416;10.066;2023-04-24T09:29:23;12.00;76.70
31369;DHT22;18004;48.416;10.066;2023-04-24T09:31:49;12.00;86.60
31369;DHT22;18004;48.416;10.066;2023-04-24T09:34:24;11.70;77.70
31369;DHT22;18004;48.416;10.066;2023-04-24T09:36:51;11.70;69.00
31369;DHT22;18004;48.416;10.066;2023-04-24T09:39:17;11.90;71.60
31369;DHT22;18004;48.416;10.066;2023-04-24T09:41:53;12.00;65.70
31369;DHT22;18004;48.416;10.066;2023-04-24T09:44:21;12.10;60.60
31369;DHT22;18004;48.416;10.066;2023-04-24T09:46:55;12.20;68.40
31369;DHT22;18004;48.416;10.066;2023-04-24T09:49:28;12.40;68.00
31369;DHT22;18004;48.416;10.066;2023-04-24T09:52:08;12.80;64.40
31369;DHT22;18004;48.416;10.066;2023-04-24T09:54:34;13.20;61.30
31369;DHT22;18004;48.416;10.066;2023-04-24T09:57:02;13.30;45.50
31369;DHT22;18004;48.416;10.066;2023-04-24T09:59:28;13.30;43.00
31369;DHT22;18004;48.416;10.066;2023-04-24T10:01:54;13.40;39.20
31369;DHT22;18004;48.416;10.066;2023-04-24T10:04:26;13.40;33.40
31369;DHT22;18004;48.416;10.066;2023-04-24T10:06:53;13.40;32.60
31369;DHT22;18004;48.416;10.066;2023-04-24T10:09:21;13.10;29.90
31369;DHT22;18004;48.416;10.066;2023-04-24T10:11:49;13.10;36.40
31369;DHT22;18004;48.416;10.066;2023-04-24T10:14:17;13.20;29.50
31369;DHT22;18004;48.416;10.066;2023-04-24T10:16:43;13.30;31.50
31369;DHT22;18004;48.416;10.066;2023-04-24T10:19:15;13.40;34.90
31369;DHT22;18004;48.416;10.066;2023-04-24T10:21:43;13.00;25.10
31369;DHT22;18004;48.416;10.066;2023-04-24T10:24:16;12.70;21.00
31369;DHT22;18004;48.416;10.066;2023-04-24T10:26:43;12.70;21.00
31369;DHT22;18004;48.416;10.066;2023-04-24T10:29:11;12.90;26.20
31369;DHT22;18004;48.416;10.066;2023-04-24T10:31:39;13.20;24.10
31369;DHT22;18004;48.416;10.066;2023-04-24T10:34:06;13.30;20.10
31369;DHT22;18004;48.416;10.066;2023-04-24T10:36:38;13.10;20.80
31369;DHT22;18004;48.416;10.066;2023-04-24T10:39:08;13.30;18.40
31369;DHT22;18004;48.416;10.066;2023-04-24T10:41:37;13.70;21.30
31369;DHT22;18004;48.416;10.066;2023-04-24T10:44:07;13.60;15.50
31369;DHT22;18004;48.416;10.066;2023-04-24T10:46:34;13.70;16.10
31369;DHT22;18004;48.416;10.066;2023-04-24T10:49:04;13.40;14.10
31369;DHT22;18004;48.416;10.066;2023-04-24T10:51:48;13.70;11.40
31369;DHT22;18004;48.416;10.066;2023-04-24T10:56:53;13.60;19.60
31369;DHT22;18004;48.416;10.066;2023-04-24T10:59:39;13.10;22.30
31369;DHT22;18004;48.416;10.066;2023-04-24T11:02:07;12.70;25.60
31369;DHT22;18004;48.416;10.066;2023-04-24T11:04:33;12.60;22.20
31369;DHT22;18004;48.416;10.066;2023-04-24T11:07:01;12.60;23.50
31369;DHT22;18004;48.416;10.066;2023-04-24T11:09:28;12.70;27.10
31369;DHT22;18004;48.416;10.066;2023-04-24T11:12:06;12.30;26.70
31369;DHT22;18004;48.416;10.066;2023-04-24T11:17:35;12.40;33.30
31369;DHT22;18004;48.416;10.066;2023-04-24T11:20:17;12.90;26.70
31369;DHT22;18004;48.416;10.066;2023-04-24T11:22:43;13.60;23.70
31369;DHT22;18004;48.416;10.066;2023-04-24T11:25:09;14.00;20.70
31369;DHT22;18004;48.416;10.066;2023-04-24T11:27:44;13.70;20.90
31369;DHT22;18004;48.416;10.066;2023-04-24T11:30:10;14.10;20.70
31369;DHT22;18004;48.416;10.066;2023-04-24T11:32:38;13.60;20.20
31369;DHT22;18004;48.416;10.066;2023-04-24T11:35:05;14.00;16.40
31369;DHT22;18004;48.416;10.066;2023-04-24T11:37:43;14.40;11.90
31369;DHT22;18004;48.416;10.066;2023-04-24T11:40:10;14.20;10.60
31369;DHT22;18004;48.416;10.066;2023-04-24T11:42:38;14.10;11.70
31369;DHT22;18004;48.416;10.066;2023-04-24T11:45:14;13.60;10.70
31369;DHT22;18004;48.416;10.066;2023-04-24T11:47:42;13.40;11.60
31369;DHT22;18004;48.416;10.066;2023-04-24T11:50:10;13.20;12.70
31369;DHT22;18004;48.416;10.066;2023-04-24T11:52:37;12.90;13.30
31369;DHT22;18004;48.416;10.066;2023-04-24T11:55:05;13.10;18.50
31369;DHT22;18004;48.416;10.066;2023-04-24T11:57:32;13.50;15.40
31369;DHT22;18004;48.416;10.066;2023-04-24T12:00:03;13.30;17.40
31369;DHT22;18004;48.416;10.066;2023-04-24T12:02:30;13.50;16.00
31369;DHT22;18004;48.416;10.066;2023-04-24T12:04:56;13.60;17.30
31369;DHT22;18004;48.416;10.066;2023-04-24T12:07:23;13.60;15.20
31369;DHT22;18004;48.416;10.066;2023-04-24T12:09:59;14.30;14.20
31369;DHT22;18004;48.416;10.066;2023-04-24T12:12:28;14.30;9.80
31369;DHT22;18004;48.416;10.066;2023-04-24T12:14:56;14.20;11.80
31369;DHT22;18004;48.416;10.066;2023-04-24T12:17:27;14.10;9.40
31369;DHT22;18004;48.416;10.066;2023-04-24T12:19:58;14.10;9.00
31369;DHT22;18004;48.416;10.066;2023-04-24T12:22:24;14.00;10.50
31369;DHT22;18004;48.416;10.066;2023-04-24T12:25:04;14.60;10.20
31369;DHT22;18004;48.416;10.066;2023-04-24T12:27:34;14.20;11.30
31369;DHT22;18004;48.416;10.066;2023-04-24T12:30:02;14.50;11.50
31369;DHT22;18004;48.416;10.066;2023-04-24T12:32:28;14.00;8.90
31369;DHT22;18004;48.416;10.066;2023-04-24T12:34:54;13.20;10.60
31369;DHT22;18004;48.416;10.066;2023-04-24T12:37:22;13.00;10.80
31369;DHT22;18004;48.416;10.066;2023-04-24T12:40:06;12.70;12.20
31369;DHT22;18004;48.416;10.066;2023-04-24T12:42:33;12.50;12.50
31369;DHT22;18004;48.416;10.066;2023-04-24T12:45:02;12.50;15.30
31369;DHT22;18004;48.416;10.066;2023-04-24T12:47:29;12.50;11.90
31369;DHT22;18004;48.416;10.066;2023-04-24T12:49:55;12.60;10.60
31369;DHT22;18004;48.416;10.066;2023-04-24T12:52:22;12.50;12.90
31369;DHT22;18004;48.416;10.066;2023-04-24T12:54:50;12.60;11.50
31369;DHT22;18004;48.416;10.066;2023-04-24T12:57:17;12.50;11.80
31369;DHT22;18004;48.416;10.066;2023-04-24T12:59:43;12.50;10.90
31369;DHT22;18004;48.416;10.066;2023-04-24T13:02:09;12.30;12.20
31369;DHT22;18004;48.416;10.066;2023-04-24T13:04:36;12.30;12.80
31369;DHT22;18004;48.416;10.066;2023-04-24T13:07:02;12.30;13.40
31369;DHT22;18004;48.416;10.066;2023-04-24T13:09:27;12.40;13.90
31369;DHT22;18004;48.416;10.066;2023-04-24T13:11:54;12.40;13.50
31369;DHT22;18004;48.416;10.066;2023-04-24T13:14:20;12.40;14.70
31369;DHT22;18004;48.416;10.066;2023-04-24T13:16:45;12.40;14.50
31369;DHT22;18004;48.416;10.066;2023-04-24T13:19:11;12.20;12.60
31369;DHT22;18004;48.416;10.066;2023-04-24T13:21:37;12.20;15.00
31369;DHT22;18004;48.416;10.066;2023-04-24T13:24:03;12.00;14.50
31369;DHT22;18004;48.416;10.066;2023-04-24T13:26:30;12.00;13.80
31369;DHT22;18004;48.416;10.066;2023-04-24T13:28:56;12.00;14.90
31369;DHT22;18004;48.416;10.066;2023-04-24T13:31:22;12.00;14.90
31369;DHT22;18004;48.416;10.066;2023-04-24T13:33:48;12.00;15.70
31369;DHT22;18004;48.416;10.066;2023-04-24T13:36:13;12.00;15.70
31369;DHT22;18004;48.416;10.066;2023-04-24T13:38:39;12.40;16.50
31369;DHT22;18004;48.416;10.066;2023-04-24T13:41:05;12.50;17.50
31369;DHT22;18004;48.416;10.066;2023-04-24T13:43:31;12.40;15.30
31369;DHT22;18004;48.416;10.066;2023-04-24T13:45:56;12.30;16.10
31369;DHT22;18004;48.416;10.066;2023-04-24T13:48:22;12.50;15.40
31369;DHT22;18004;48.416;10.066;2023-04-24T13:50:48;12.20;16.40
31369;DHT22;18004;48.416;10.066;2023-04-24T13:53:15;12.40;17.70
31369;DHT22;18004;48.416;10.066;2023-04-24T13:55:40;12.40;18.60
31369;DHT22;18004;48.416;10.066;2023-04-24T13:58:07;12.30;16.70
31369;DHT22;18004;48.416;10.066;2023-04-24T14:00:33;12.20;18.00
31369;DHT22;18004;48.416;10.066;2023-04-24T14:02:58;12.10;16.10
31369;DHT22;18004;48.416;10.066;2023-04-24T14:05:24;12.20;17.50
31369;DHT22;18004;48.416;10.066;2023-04-24T14:07:50;12.40;15.00
31369;DHT22;18004;48.416;10.066;2023-04-24T14:10:16;12.30;15.00
31369;DHT22;18004;48.416;10.066;2023-04-24T14:12:42;12.30;12.00
31369;DHT22;18004;48.416;10.066;2023-04-24T14:15:08;12.30;12.50
31369;DHT22;18004;48.416;10.066;2023-04-24T14:17:38;12.50;13.80
31369;DHT22;18004;48.416;10.066;2023-04-24T14:20:04;12.60;13.90
31369;DHT22;18004;48.416;10.066;2023-04-24T14:22:30;12.40;12.70
31369;DHT22;18004;48.416;10.066;2023-04-24T14:24:56;12.60;13.50
31369;DHT22;18004;48.416;10.066;2023-04-24T14:27:22;12.50;11.70
31369;DHT22;18004;48.416;10.066;2023-04-24T14:29:47;12.60;14.40
31369;DHT22;18004;48.416;10.066;2023-04-24T14:32:13;12.70;13.00
31369;DHT22;18004;48.416;10.066;2023-04-24T14:34:40;12.70;10.70
31369;DHT22;18004;48.416;10.066;2023-04-24T14:37:07;12.60;11.20
31369;DHT22;18004;48.416;10.066;2023-04-24T14:39:33;12.70;12.90
31369;DHT22;18004;48.416;10.066;2023-04-24T14:42:00;12.70;10.70
31369;DHT22;18004;48.416;10.066;2023-04-24T14:44:26;12.60;10.10
31369;DHT22;18004;48.416;10.066;2023-04-24T14:46:52;12.50;10.40
31369;DHT22;18004;48.416;10.066;2023-04-24T14:49:18;12.70;10.60
31369;DHT22;18004;48.416;10.066;2023-04-24T14:51:44;12.60;9.20
31369;DHT22;18004;48.416;10.066;2023-04-24T14:54:10;12.60;9.30
31369;DHT22;18004;48.416;10.066;2023-04-24T14:56:36;12.60;8.40
31369;DHT22;18004;48.416;10.066;2023-04-24T14:59:02;12.40;9.00
31369;DHT22;18004;48.416;10.066;2023-04-24T15:01:29;12.40;8.90
31369;DHT22;18004;48.416;10.066;2023-04-24T15:03:55;12.40;8.40
31369;DHT22;18004;48.416;10.066;2023-04-24T15:06:20;12.30;8.90
31369;DHT22;18004;48.416;10.066;2023-04-24T15:08:46;12.50;10.50
31369;DHT22;18004;48.416;10.066;2023-04-24T15:11:12;12.40;9.10
31369;DHT22;18004;48.416;10.066;2023-04-24T15:13:38;12.50;9.10
31369;DHT22;18004;48.416;10.066;2023-04-24T15:16:04;12.40;10.40
31369;DHT22;18004;48.416;10.066;2023-04-24T15:18:30;12.50;10.00
31369;DHT22;18004;48.416;10.066;2023-04-24T15:20:56;12.70;10.60